sensor_id;sensor_type;location;lat;lon;timestamp;temperature;humidity
13699;DHT22;6921;53.642;9.956;2023-05-16T00:04:48;11.20;99.90
13699;DHT22;6921;53.642;9.956;2023-05-16T00:06:53;11.00;99.90
13699;DHT22;6921;53.642;9.956;2023-05-16T00:08:56;11.00;99.90
13699;DHT22;6921;53.642;9.956;2023-05-16T00:13:03;11.10;99.90
13699;DHT22;6921;53.642;9.956;2023-05-16T00:15:10;11.00;99.90
13699;DHT22;6921;53.642;9.956;2023-05-16T00:17:15;11.00;99.90
13699;DHT22;6921;53.642;9.956;2023-05-16T00:19:18;11.00;99.90
13699;DHT22;6921;53.642;9.956;2023-05-16T00:23:29;11.10;99.90
13699;DHT22;6921;53.642;9.956;2023-05-16T00:25:32;11.10;99.90
13699;DHT22;6921;53.642;9.956;2023-05-16T00:27:35;10.70;99.90
13699;DHT22;6921;53.642;9.956;2023-05-16T00:29:38;11.10;99.90
13699;DHT22;6921;53.642;9.956;2023-05-16T00:31:41;11.20;99.90
13699;DHT22;6921;53.642;9.956;2023-05-16T00:33:44;11.20;99.90
13699;DHT22;6921;53.642;9.956;2023-05-16T00:35:47;11.20;99.90
13699;DHT22;6921;53.642;9.956;2023-05-16T00:37:51;11.40;99.90
13699;DHT22;6921;53.642;9.956;2023-05-16T00:39:55;11.20;99.90
13699;DHT22;6921;53.642;9.956;2023-05-16T00:44:02;11.30;99.90
13699;DHT22;6921;53.642;9.956;2023-05-16T00:52:16;11.10;99.90
13699;DHT22;6921;53.642;9.956;2023-05-16T00:54:21;11.20;99.90
13699;DHT22;6921;53.642;9.956;2023-05-16T00:56:26;11.20;99.90
13699;DHT22;6921;53.642;9.956;2023-05-16T00:58:29;11.20;99.90
13699;DHT22;6921;53.642;9.956;2023-05-16T01:00:34;11.00;99.90
13699;DHT22;6921;53.642;9.956;2023-05-16T01:02:38;11.00;99.90
13699;DHT22;6921;53.642;9.956;2023-05-16T01:04:42;11.20;99.90
13699;DHT22;6921;53.642;9.956;2023-05-16T01:13:10;11.20;99.90
13699;DHT22;6921;53.642;9.956;2023-05-16T01:15:20;11.20;99.90
13699;DHT22;6921;53.642;9.956;2023-05-16T01:17:30;11.20;99.90
13699;DHT22;6921;53.642;9.956;2023-05-16T01:19:49;11.10;99.90
13699;DHT22;6921;53.642;9.956;2023-05-16T01:22:02;11.30;99.90
13699;DHT22;6921;53.642;9.956;2023-05-16T01:24:13;11.40;99.90
13699;DHT22;6921;53.642;9.956;2023-05-16T01:26:20;11.20;99.90
13699;DHT22;6921;53.642;9.956;2023-05-16T01:28:24;11.20;99.90
13699;DHT22;6921;53.642;9.956;2023-05-16T01:30:34;11.20;99.90
13699;DHT22;6921;53.642;9.956;2023-05-16T01:34:41;11.30;99.90
13699;DHT22;6921;53.642;9.956;2023-05-16T01:36:49;11.20;99.90
13699;DHT22;6921;53.642;9.956;2023-05-16T01:39:04;11.20;99.90
13699;DHT22;6921;53.642;9.956;2023-05-16T01:41:15;11.10;99.90
13699;DHT22;6921;53.642;9.956;2023-05-16T01:43:29;11.10;99.90
13699;DHT22;6921;53.642;9.956;2023-05-16T01:45:36;11.10;99.90
13699;DHT22;6921;53.642;9.956;2023-05-16T01:47:45;11.10;99.90
13699;DHT22;6921;53.642;9.956;2023-05-16T01:49:53;11.10;99.90
13699;DHT22;6921;53.642;9.956;2023-05-16T01:52:00;11.10;99.90
13699;DHT22;6921;53.642;9.956;2023-05-16T01:54:08;11.10;99.90
13699;DHT22;6921;53.642;9.956;2023-05-16T01:56:15;11.00;99.90
13699;DHT22;6921;53.642;9.956;2023-05-16T01:58:24;11.00;99.90
13699;DHT22;6921;53.642;9.956;2023-05-16T02:02:32;11.10;99.90
13699;DHT22;6921;53.642;9.956;2023-05-16T02:04:35;11.00;99.90
13699;DHT22;6921;53.642;9.956;2023-05-16T02:06:38;11.00;99.90
13699;DHT22;6921;53.642;9.956;2023-05-16T02:08:42;11.00;99.90
13699;DHT22;6921;53.642;9.956;2023-05-16T02:10:45;11.00;99.90
13699;DHT22;6921;53.642;9.956;2023-05-16T02:14:53;10.20;99.90
13699;DHT22;6921;53.642;9.956;2023-05-16T02:16:56;11.20;99.90
13699;DHT22;6921;53.642;9.956;2023-05-16T02:18:59;11.70;99.90
13699;DHT22;6921;53.642;9.956;2023-05-16T02:21:02;11.10;99.90
13699;DHT22;6921;53.642;9.956;2023-05-16T02:23:05;11.50;99.90
13699;DHT22;6921;53.642;9.956;2023-05-16T02:25:09;11.00;99.90
13699;DHT22;6921;53.642;9.956;2023-05-16T02:27:12;11.10;99.90
13699;DHT22;6921;53.642;9.956;2023-05-16T02:29:15;11.00;99.90
13699;DHT22;6921;53.642;9.956;2023-05-16T02:31:26;11.10;99.90
13699;DHT22;6921;53.642;9.956;2023-05-16T02:33:30;10.90;99.90
13699;DHT22;6921;53.642;9.956;2023-05-16T02:35:33;10.80;77.30
13699;DHT22;6921;53.642;9.956;2023-05-16T02:37:36;10.90;99.90
13699;DHT22;6921;53.642;9.956;2023-05-16T02:39:39;10.90;99.90
13699;DHT22;6921;53.642;9.956;2023-05-16T02:41:42;11.70;99.90
13699;DHT22;6921;53.642;9.956;2023-05-16T02:43:46;10.90;92.20
13699;DHT22;6921;53.642;9.956;2023-05-16T02:45:49;10.70;99.90
13699;DHT22;6921;53.642;9.956;2023-05-16T02:47:54;10.70;99.90
13699;DHT22;6921;53.642;9.956;2023-05-16T02:49:57;10.80;99.90
13699;DHT22;6921;53.642;9.956;2023-05-16T02:52:00;10.70;99.90
13699;DHT22;6921;53.642;9.956;2023-05-16T02:54:03;10.60;99.90
13699;DHT22;6921;53.642;9.956;2023-05-16T02:56:08;10.70;99.90
13699;DHT22;6921;53.642;9.956;2023-05-16T02:58:12;10.60;99.90
13699;DHT22;6921;53.642;9.956;2023-05-16T03:00:15;10.60;99.90
13699;DHT22;6921;53.642;9.956;2023-05-16T03:02:19;10.90;99.90
13699;DHT22;6921;53.642;9.956;2023-05-16T03:04:24;11.20;99.90
13699;DHT22;6921;53.642;9.956;2023-05-16T03:06:27;10.60;99.90
13699;DHT22;6921;53.642;9.956;2023-05-16T03:08:31;10.70;99.90
13699;DHT22;6921;53.642;9.956;2023-05-16T03:10:34;11.00;99.90
13699;DHT22;6921;53.642;9.956;2023-05-16T03:12:37;10.50;99.90
13699;DHT22;6921;53.642;9.956;2023-05-16T03:14:40;10.60;99.90
13699;DHT22;6921;53.642;9.956;2023-05-16T03:18:47;11.40;99.90
13699;DHT22;6921;53.642;9.956;2023-05-16T03:20:51;10.60;99.90
13699;DHT22;6921;53.642;9.956;2023-05-16T03:22:54;10.80;99.90
13699;DHT22;6921;53.642;9.956;2023-05-16T03:24:57;10.90;99.60
13699;DHT22;6921;53.642;9.956;2023-05-16T03:27:00;10.70;99.30
13699;DHT22;6921;53.642;9.956;2023-05-16T03:29:04;10.60;93.20
13699;DHT22;6921;53.642;9.956;2023-05-16T03:31:07;10.70;95.90
13699;DHT22;6921;53.642;9.956;2023-05-16T03:33:11;10.60;93.90
13699;DHT22;6921;53.642;9.956;2023-05-16T03:35:14;11.00;91.70
13699;DHT22;6921;53.642;9.956;2023-05-16T03:37:18;10.50;99.90
13699;DHT22;6921;53.642;9.956;2023-05-16T03:39:21;10.60;96.20
13699;DHT22;6921;53.642;9.956;2023-05-16T03:41:24;10.60;99.30
13699;DHT22;6921;53.642;9.956;2023-05-16T03:43:27;11.00;90.30
13699;DHT22;6921;53.642;9.956;2023-05-16T03:45:31;10.70;90.90
13699;DHT22;6921;53.642;9.956;2023-05-16T03:47:34;10.50;69.40
13699;DHT22;6921;53.642;9.956;2023-05-16T03:49:37;11.00;83.50
13699;DHT22;6921;53.642;9.956;2023-05-16T03:51:40;10.50;72.30
13699;DHT22;6921;53.642;9.956;2023-05-16T03:53:45;10.50;90.10
13699;DHT22;6921;53.642;9.956;2023-05-16T03:55:48;10.40;73.90
13699;DHT22;6921;53.642;9.956;2023-05-16T03:57:51;10.50;91.50
13699;DHT22;6921;53.642;9.956;2023-05-16T03:59:54;10.60;92.80
13699;DHT22;6921;53.642;9.956;2023-05-16T04:01:57;10.60;88.60
13699;DHT22;6921;53.642;9.956;2023-05-16T04:04:00;10.80;93.60
13699;DHT22;6921;53.642;9.956;2023-05-16T04:06:05;11.10;92.10
13699;DHT22;6921;53.642;9.956;2023-05-16T04:08:08;10.30;74.70
13699;DHT22;6921;53.642;9.956;2023-05-16T04:10:13;10.50;66.30
13699;DHT22;6921;53.642;9.956;2023-05-16T04:12:16;10.50;57.30
13699;DHT22;6921;53.642;9.956;2023-05-16T04:16:22;10.40;95.70
13699;DHT22;6921;53.642;9.956;2023-05-16T04:18:26;10.50;82.00
13699;DHT22;6921;53.642;9.956;2023-05-16T04:20:29;10.50;61.80
13699;DHT22;6921;53.642;9.956;2023-05-16T04:22:33;10.90;68.50
13699;DHT22;6921;53.642;9.956;2023-05-16T04:24:36;10.60;84.60
13699;DHT22;6921;53.642;9.956;2023-05-16T04:26:40;10.40;56.60
13699;DHT22;6921;53.642;9.956;2023-05-16T04:28:44;10.30;60.10
13699;DHT22;6921;53.642;9.956;2023-05-16T04:30:47;10.40;81.50
13699;DHT22;6921;53.642;9.956;2023-05-16T04:32:51;10.30;71.60
13699;DHT22;6921;53.642;9.956;2023-05-16T04:34:54;10.30;35.20
13699;DHT22;6921;53.642;9.956;2023-05-16T04:36:57;10.30;23.30
13699;DHT22;6921;53.642;9.956;2023-05-16T04:39:00;10.30;56.90
13699;DHT22;6921;53.642;9.956;2023-05-16T04:41:03;10.30;42.20
13699;DHT22;6921;53.642;9.956;2023-05-16T04:43:08;10.10;49.80
13699;DHT22;6921;53.642;9.956;2023-05-16T04:45:11;10.30;15.00
13699;DHT22;6921;53.642;9.956;2023-05-16T04:47:15;10.00;15.50
13699;DHT22;6921;53.642;9.956;2023-05-16T04:49:18;10.40;31.50
13699;DHT22;6921;53.642;9.956;2023-05-16T04:53:25;10.20;17.20
13699;DHT22;6921;53.642;9.956;2023-05-16T04:55:29;10.20;19.70
13699;DHT22;6921;53.642;9.956;2023-05-16T04:57:32;10.30;9.60
13699;DHT22;6921;53.642;9.956;2023-05-16T04:59:37;10.00;15.40
13699;DHT22;6921;53.642;9.956;2023-05-16T05:01:40;10.10;1.00
13699;DHT22;6921;53.642;9.956;2023-05-16T05:03:43;9.40;1.00
13699;DHT22;6921;53.642;9.956;2023-05-16T05:05:49;10.20;4.30
13699;DHT22;6921;53.642;9.956;2023-05-16T05:10:11;10.20;1.00
13699;DHT22;6921;53.642;9.956;2023-05-16T05:12:14;10.20;1.00
13699;DHT22;6921;53.642;9.956;2023-05-16T05:14:17;10.80;1.00
13699;DHT22;6921;53.642;9.956;2023-05-16T05:16:22;10.60;1.00
13699;DHT22;6921;53.642;9.956;2023-05-16T05:18:25;10.30;1.00
13699;DHT22;6921;53.642;9.956;2023-05-16T05:20:28;10.50;1.00
13699;DHT22;6921;53.642;9.956;2023-05-16T05:22:32;10.10;1.00
13699;DHT22;6921;53.642;9.956;2023-05-16T05:24:35;10.30;1.00
13699;DHT22;6921;53.642;9.956;2023-05-16T05:26:38;10.50;1.00
13699;DHT22;6921;53.642;9.956;2023-05-16T05:28:42;10.70;1.00
13699;DHT22;6921;53.642;9.956;2023-05-16T05:30:54;10.50;1.00
13699;DHT22;6921;53.642;9.956;2023-05-16T05:32:59;10.60;1.00
13699;DHT22;6921;53.642;9.956;2023-05-16T05:35:04;10.60;1.00
13699;DHT22;6921;53.642;9.956;2023-05-16T05:37:08;10.60;1.00
13699;DHT22;6921;53.642;9.956;2023-05-16T05:39:12;10.70;1.00
13699;DHT22;6921;53.642;9.956;2023-05-16T05:43:19;10.00;1.00
13699;DHT22;6921;53.642;9.956;2023-05-16T05:45:22;10.70;1.00
13699;DHT22;6921;53.642;9.956;2023-05-16T05:47:26;10.10;1.00
13699;DHT22;6921;53.642;9.956;2023-05-16T05:49:31;10.60;1.00
13699;DHT22;6921;53.642;9.956;2023-05-16T05:51:34;10.60;1.00
13699;DHT22;6921;53.642;9.956;2023-05-16T05:53:37;10.70;1.00
13699;DHT22;6921;53.642;9.956;2023-05-16T05:55:40;10.70;1.00
13699;DHT22;6921;53.642;9.956;2023-05-16T05:57:44;10.80;1.00
13699;DHT22;6921;53.642;9.956;2023-05-16T05:59:49;10.90;1.00
13699;DHT22;6921;53.642;9.956;2023-05-16T06:01:52;11.00;1.00
13699;DHT22;6921;53.642;9.956;2023-05-16T06:03:58;11.10;1.00
13699;DHT22;6921;53.642;9.956;2023-05-16T06:06:04;11.00;1.00
13699;DHT22;6921;53.642;9.956;2023-05-16T06:12:16;10.90;1.00
13699;DHT22;6921;53.642;9.956;2023-05-16T06:14:20;10.90;1.00
13699;DHT22;6921;53.642;9.956;2023-05-16T06:16:24;11.50;28.00
13699;DHT22;6921;53.642;9.956;2023-05-16T06:20:32;11.00;1.00
13699;DHT22;6921;53.642;9.956;2023-05-16T06:22:36;10.90;24.10
13699;DHT22;6921;53.642;9.956;2023-05-16T06:24:40;10.60;99.90
13699;DHT22;6921;53.642;9.956;2023-05-16T06:26:43;10.90;37.10
13699;DHT22;6921;53.642;9.956;2023-05-16T06:28:51;11.30;1.00
13699;DHT22;6921;53.642;9.956;2023-05-16T06:30:54;11.80;1.00
13699;DHT22;6921;53.642;9.956;2023-05-16T06:32:58;11.40;1.00
13699;DHT22;6921;53.642;9.956;2023-05-16T06:35:02;11.40;1.00
13699;DHT22;6921;53.642;9.956;2023-05-16T06:37:08;11.50;1.00
13699;DHT22;6921;53.642;9.956;2023-05-16T06:43:24;11.60;99.90
13699;DHT22;6921;53.642;9.956;2023-05-16T06:45:27;11.60;1.00
13699;DHT22;6921;53.642;9.956;2023-05-16T06:47:31;11.40;99.90
13699;DHT22;6921;53.642;9.956;2023-05-16T06:49:35;11.40;1.00
13699;DHT22;6921;53.642;9.956;2023-05-16T06:51:43;11.20;1.00
13699;DHT22;6921;53.642;9.956;2023-05-16T06:53:46;11.20;1.00
13699;DHT22;6921;53.642;9.956;2023-05-16T06:57:55;11.30;99.90
13699;DHT22;6921;53.642;9.956;2023-05-16T07:02:04;11.70;1.00
13699;DHT22;6921;53.642;9.956;2023-05-16T07:04:08;11.90;97.20
13699;DHT22;6921;53.642;9.956;2023-05-16T07:08:14;12.00;1.00
13699;DHT22;6921;53.642;9.956;2023-05-16T07:10:18;12.10;1.00
13699;DHT22;6921;53.642;9.956;2023-05-16T07:14:30;11.80;99.90
13699;DHT22;6921;53.642;9.956;2023-05-16T07:18:46;11.90;1.00
13699;DHT22;6921;53.642;9.956;2023-05-16T07:25:19;12.40;99.90
13699;DHT22;6921;53.642;9.956;2023-05-16T07:31:42;11.60;99.90
13699;DHT22;6921;53.642;9.956;2023-05-16T07:33:52;11.60;99.90
13699;DHT22;6921;53.642;9.956;2023-05-16T07:35:56;11.60;99.90
13699;DHT22;6921;53.642;9.956;2023-05-16T07:38:15;11.80;99.90
13699;DHT22;6921;53.642;9.956;2023-05-16T07:40:19;11.50;99.90
13699;DHT22;6921;53.642;9.956;2023-05-16T07:42:28;11.60;99.90
13699;DHT22;6921;53.642;9.956;2023-05-16T07:48:53;11.90;99.90
13699;DHT22;6921;53.642;9.956;2023-05-16T07:53:05;12.10;99.90
13699;DHT22;6921;53.642;9.956;2023-05-16T07:55:09;11.80;99.90
13699;DHT22;6921;53.642;9.956;2023-05-16T07:59:19;12.20;99.90
13699;DHT22;6921;53.642;9.956;2023-05-16T08:18:14;12.90;99.90
13699;DHT22;6921;53.642;9.956;2023-05-16T08:47:18;12.50;99.90
13699;DHT22;6921;53.642;9.956;2023-05-16T08:49:26;12.70;99.90
13699;DHT22;6921;53.642;9.956;2023-05-16T08:51:32;12.80;99.90
13699;DHT22;6921;53.642;9.956;2023-05-16T08:53:40;13.30;99.90
13699;DHT22;6921;53.642;9.956;2023-05-16T08:55:47;12.90;99.90
13699;DHT22;6921;53.642;9.956;2023-05-16T08:57:52;12.80;99.90
13699;DHT22;6921;53.642;9.956;2023-05-16T09:04:07;13.30;99.90
13699;DHT22;6921;53.642;9.956;2023-05-16T09:06:12;13.20;99.90
13699;DHT22;6921;53.642;9.956;2023-05-16T09:20:43;12.80;99.90
13699;DHT22;6921;53.642;9.956;2023-05-16T09:22:53;12.80;99.90
13699;DHT22;6921;53.642;9.956;2023-05-16T09:24:58;12.90;99.90
13699;DHT22;6921;53.642;9.956;2023-05-16T09:27:07;13.00;99.90
13699;DHT22;6921;53.642;9.956;2023-05-16T09:31:21;13.10;99.90
13699;DHT22;6921;53.642;9.956;2023-05-16T09:39:45;13.20;99.90
13699;DHT22;6921;53.642;9.956;2023-05-16T09:41:51;13.30;99.90
13699;DHT22;6921;53.642;9.956;2023-05-16T09:48:04;13.50;27.50
13699;DHT22;6921;53.642;9.956;2023-05-16T09:50:08;13.50;1.00
13699;DHT22;6921;53.642;9.956;2023-05-16T09:58:29;13.50;1.00
13699;DHT22;6921;53.642;9.956;2023-05-16T10:08:48;13.00;1.00
13699;DHT22;6921;53.642;9.956;2023-05-16T10:10:53;13.10;1.00
13699;DHT22;6921;53.642;9.956;2023-05-16T10:12:59;13.10;1.00
13699;DHT22;6921;53.642;9.956;2023-05-16T10:15:04;12.90;1.00
13699;DHT22;6921;53.642;9.956;2023-05-16T10:17:11;12.70;19.50
13699;DHT22;6921;53.642;9.956;2023-05-16T10:19:19;12.90;11.50
13699;DHT22;6921;53.642;9.956;2023-05-16T10:21:25;12.80;12.10
13699;DHT22;6921;53.642;9.956;2023-05-16T10:25:38;13.20;8.30
13699;DHT22;6921;53.642;9.956;2023-05-16T10:27:43;13.30;1.50
13699;DHT22;6921;53.642;9.956;2023-05-16T10:29:48;13.40;92.10
13699;DHT22;6921;53.642;9.956;2023-05-16T10:38:08;13.40;21.90
13699;DHT22;6921;53.642;9.956;2023-05-16T10:40:13;13.60;85.40
13699;DHT22;6921;53.642;9.956;2023-05-16T10:42:17;13.80;99.90
13699;DHT22;6921;53.642;9.956;2023-05-16T10:46:27;13.60;65.90
13699;DHT22;6921;53.642;9.956;2023-05-16T10:48:34;13.50;11.00
13699;DHT22;6921;53.642;9.956;2023-05-16T10:50:40;13.30;99.90
13699;DHT22;6921;53.642;9.956;2023-05-16T10:54:50;13.40;23.80
13699;DHT22;6921;53.642;9.956;2023-05-16T10:56:54;13.50;14.00
13699;DHT22;6921;53.642;9.956;2023-05-16T11:45:55;16.70;99.90
13699;DHT22;6921;53.642;9.956;2023-05-16T23:46:58;9.50;99.90
